createdAt,value
2023-04-12T00:00:29.221Z,2.13
2023-04-12T00:03:35.948Z,3.05
2023-04-12T00:06:42.357Z,1.92
2023-04-12T00:09:48.716Z,2.55
2023-04-12T00:12:52.775Z,2.45
2023-04-12T00:15:59.071Z,2.35
2023-04-12T00:19:03.593Z,2.83
2023-04-12T00:22:12.727Z,2.38
2023-04-12T00:25:16.958Z,2.67
2023-04-12T00:28:24.314Z,2.40
2023-04-12T00:31:28.920Z,1.63
2023-04-12T00:34:34.984Z,2.40
2023-04-12T00:37:41.303Z,2.13
2023-04-12T00:40:48.219Z,1.90
2023-04-12T00:43:52.266Z,2.00
2023-04-12T00:46:59.839Z,1.83
2023-04-12T00:50:05.431Z,2.40
2023-04-12T00:53:15.235Z,2.00
2023-04-12T00:56:23.094Z,2.38
2023-04-12T00:59:32.346Z,1.90
2023-04-12T01:02:38.710Z,1.90
2023-04-12T01:05:52.025Z,2.20
2023-04-12T01:09:05.383Z,2.17
2023-04-12T01:12:22.225Z,2.20
2023-04-12T01:15:28.290Z,2.15
2023-04-12T01:18:41.455Z,2.03
2023-04-12T01:22:00.907Z,2.58
2023-04-12T01:25:23.723Z,2.15
2023-04-12T01:28:35.485Z,1.33
2023-04-12T01:31:46.408Z,1.60
2023-04-12T01:34:51.075Z,1.90
2023-04-12T01:37:59.209Z,1.77
2023-04-12T01:41:04.066Z,1.63
2023-04-12T01:44:15.360Z,1.95
2023-04-12T01:47:20.024Z,1.92
2023-04-12T01:50:35.618Z,1.90
2023-04-12T01:56:57.377Z,1.38
2023-04-12T02:00:06.639Z,1.38
2023-04-12T02:03:23.541Z,1.23
2023-04-12T02:06:29.148Z,1.60
2023-04-12T02:09:38.842Z,1.83
2023-04-12T02:12:43.124Z,1.35
2023-04-12T02:15:54.337Z,1.20
2023-04-12T02:18:59.406Z,1.75
2023-04-12T02:22:07.485Z,1.75
2023-04-12T02:25:12.134Z,1.50
2023-04-12T02:28:18.634Z,1.85
2023-04-12T02:31:24.922Z,1.42
2023-04-12T02:34:36.083Z,1.95
2023-04-12T02:37:52.890Z,1.83
2023-04-12T02:40:59.275Z,1.83
2023-04-12T02:44:04.472Z,1.42
2023-04-12T02:47:12.919Z,1.67
2023-04-12T02:50:20.540Z,1.98
2023-04-12T02:53:33.154Z,2.33
2023-04-12T02:56:48.642Z,1.65
2023-04-12T03:00:15.588Z,1.45
2023-04-12T03:03:25.736Z,1.83
2023-04-12T03:06:35.605Z,1.98
2023-04-12T03:09:42.086Z,1.83
2023-04-12T03:12:48.557Z,1.73
2023-04-12T03:15:57.470Z,1.50
2023-04-12T03:19:13.703Z,2.20
2023-04-12T03:22:18.558Z,2.35
2023-04-12T03:25:29.306Z,2.30
2023-04-12T03:28:42.159Z,1.40
2023-04-12T03:31:48.470Z,1.73
2023-04-12T03:34:54.858Z,1.80
2023-04-12T03:38:04.764Z,1.42
2023-04-12T03:41:09.686Z,2.40
2023-04-12T03:44:17.249Z,1.33
2023-04-12T03:47:22.684Z,1.77
2023-04-12T03:50:31.400Z,1.67
2023-04-12T03:53:35.599Z,1.40
2023-04-12T03:56:42.797Z,1.52
2023-04-12T03:59:55.603Z,1.63
2023-04-12T04:03:06.394Z,1.95
2023-04-12T04:06:19.939Z,2.33
2023-04-12T04:09:26.039Z,1.90
2023-04-12T04:12:30.035Z,1.75
2023-04-12T04:15:36.902Z,1.52
2023-04-12T04:18:41.898Z,1.73
2023-04-12T04:21:52.751Z,1.58
2023-04-12T04:24:57.854Z,1.67
2023-04-12T04:28:04.039Z,1.70
2023-04-12T04:31:10.225Z,1.52
2023-04-12T04:34:19.332Z,1.67
2023-04-12T04:37:27.139Z,1.15
2023-04-12T04:40:34.455Z,1.88
2023-04-12T04:43:42.281Z,1.45
2023-04-12T04:46:48.554Z,1.50
2023-04-12T04:53:06.055Z,1.48
2023-04-12T04:56:12.011Z,1.65
2023-04-12T04:59:19.844Z,1.33
2023-04-12T05:02:25.595Z,1.35
2023-04-12T05:05:32.161Z,1.50
2023-04-12T05:08:44.937Z,1.35
2023-04-12T05:11:53.870Z,1.60
2023-04-12T05:15:10.554Z,1.63
2023-04-12T05:18:17.854Z,2.65
2023-04-12T05:21:24.044Z,1.20
2023-04-12T05:24:33.265Z,1.60
2023-04-12T05:27:38.056Z,1.63
2023-04-12T05:30:46.556Z,2.00
2023-04-12T05:33:55.442Z,1.20
2023-04-12T05:37:06.805Z,1.40
2023-04-12T05:40:18.740Z,3.05
2023-04-12T05:43:28.586Z,1.40
2023-04-12T05:46:34.331Z,1.25
2023-04-12T05:49:40.528Z,1.00
2023-04-12T05:52:48.089Z,1.20
2023-04-12T05:55:56.775Z,1.90
2023-04-12T05:59:02.183Z,1.33
2023-04-12T06:02:09.623Z,1.13
2023-04-12T06:05:14.566Z,1.73
2023-04-12T06:08:21.080Z,1.35
2023-04-12T06:11:27.473Z,1.63
2023-04-12T06:14:34.264Z,1.20
2023-04-12T06:17:39.037Z,1.30
2023-04-12T06:20:45.839Z,1.10
2023-04-12T06:23:50.334Z,1.40
2023-04-12T06:26:59.151Z,1.52
2023-04-12T06:30:03.137Z,1.38
2023-04-12T06:33:12.477Z,1.67
2023-04-12T06:36:16.826Z,1.60
2023-04-12T06:39:23.096Z,1.40
2023-04-12T06:42:29.534Z,1.38
2023-04-12T06:45:35.812Z,1.50
2023-04-12T06:48:40.857Z,1.38
2023-04-12T06:51:47.855Z,1.38
2023-04-12T06:54:51.812Z,1.70
2023-04-12T06:57:59.986Z,1.15
2023-04-12T07:01:07.862Z,1.90
2023-04-12T07:04:14.027Z,1.77
2023-04-12T07:07:20.225Z,1.20
2023-04-12T07:10:28.018Z,1.15
2023-04-12T07:13:34.495Z,1.30
2023-04-12T07:16:40.642Z,1.30
2023-04-12T07:19:44.615Z,1.88
2023-04-12T07:22:50.957Z,1.27
2023-04-12T07:25:55.396Z,2.03
2023-04-12T07:29:03.950Z,1.60
2023-04-12T07:32:08.845Z,1.75
2023-04-12T07:35:15.107Z,1.60
2023-04-12T07:38:19.302Z,1.50
2023-04-12T07:41:25.423Z,1.50
2023-04-12T07:44:34.317Z,1.58
2023-04-12T07:47:41.586Z,1.58
2023-04-12T07:50:46.325Z,1.30
2023-04-12T07:53:52.797Z,1.80
2023-04-12T07:57:01.082Z,1.95
2023-04-12T08:00:11.858Z,1.80
2023-04-12T08:03:20.289Z,1.65
2023-04-12T08:06:30.030Z,2.20
2023-04-12T08:09:35.093Z,2.60
2023-04-12T08:12:41.280Z,1.70
2023-04-12T08:18:53.927Z,1.80
2023-04-12T08:25:08.193Z,1.67
2023-04-12T08:28:12.158Z,1.92
2023-04-12T08:31:20.250Z,1.70
2023-04-12T08:34:24.534Z,2.15
2023-04-12T08:37:32.873Z,2.30
2023-04-12T08:40:37.847Z,2.35
2023-04-12T08:43:46.902Z,2.00
2023-04-12T08:46:53.559Z,1.98
2023-04-12T08:50:01.152Z,2.20
2023-04-12T08:53:05.828Z,2.30
2023-04-12T08:56:13.462Z,2.10
2023-04-12T08:59:17.586Z,2.22
2023-04-12T09:02:26.152Z,2.47
2023-04-12T09:05:31.559Z,3.20
2023-04-12T09:08:37.628Z,3.00
2023-04-12T09:11:41.862Z,3.17
2023-04-12T09:14:47.977Z,4.55
2023-04-12T09:18:06.326Z,3.15
2023-04-12T09:21:13.326Z,3.38
2023-04-12T09:24:17.317Z,4.28
2023-04-12T09:27:24.847Z,4.25
2023-04-12T09:30:29.076Z,4.45
2023-04-12T09:33:38.953Z,5.18
2023-04-12T09:36:44.635Z,5.32
2023-04-12T09:40:01.393Z,5.57
2023-04-12T09:43:05.632Z,6.00
2023-04-12T09:46:14.237Z,6.00
2023-04-12T09:49:20.365Z,5.40
2023-04-12T09:52:36.818Z,4.57
2023-04-12T09:55:43.015Z,4.90
2023-04-12T09:58:55.228Z,3.90
2023-04-12T10:02:01.846Z,3.40
2023-04-12T10:05:12.810Z,3.60
2023-04-12T10:08:17.369Z,2.88
2023-04-12T10:11:24.708Z,2.70
2023-04-12T10:14:33.981Z,2.95
2023-04-12T10:17:43.669Z,2.63
2023-04-12T10:20:50.163Z,2.63
2023-04-12T10:23:57.716Z,2.47
2023-04-12T10:27:05.055Z,2.67
2023-04-12T10:30:28.971Z,2.30
2023-04-12T10:33:33.110Z,2.83
2023-04-12T10:36:57.034Z,2.70
2023-04-12T10:40:05.423Z,3.97
2023-04-12T10:43:27.398Z,2.83
2023-04-12T10:46:52.835Z,2.60
2023-04-12T10:50:26.226Z,1.90
2023-04-12T10:53:37.847Z,2.15
2023-04-12T10:56:46.900Z,2.55
2023-04-12T11:00:06.018Z,2.63
2023-04-12T11:03:13.672Z,2.40
2023-04-12T11:06:27.195Z,2.83
2023-04-12T11:10:00.249Z,2.13
2023-04-12T11:13:08.532Z,2.10
2023-04-12T11:16:14.938Z,2.00
2023-04-12T11:19:19.214Z,2.88
2023-04-12T11:22:27.452Z,2.08
2023-04-12T11:25:33.563Z,2.80
2023-04-12T11:28:40.005Z,2.10
2023-04-12T11:31:44.145Z,2.80
2023-04-12T11:34:50.321Z,2.95
2023-04-12T11:37:54.421Z,2.20
2023-04-12T11:41:03.364Z,3.80
2023-04-12T11:44:07.486Z,2.92
2023-04-12T11:47:18.794Z,2.47
2023-04-12T11:50:31.228Z,3.00
2023-04-12T11:53:37.728Z,2.55
2023-04-12T11:56:44.258Z,2.53
2023-04-12T11:59:51.790Z,3.20
2023-04-12T12:03:06.614Z,2.85
2023-04-12T12:06:14.014Z,2.90
2023-04-12T12:09:18.349Z,2.33
2023-04-12T12:12:26.688Z,3.90
2023-04-12T12:15:32.224Z,2.83
2023-04-12T12:18:41.674Z,2.78
2023-04-12T12:21:45.654Z,2.67
2023-04-12T12:24:57.459Z,2.63
2023-04-12T12:28:05.156Z,3.03
2023-04-12T12:31:12.664Z,3.13
2023-04-12T12:34:18.932Z,2.60
2023-04-12T12:37:29.214Z,3.28
2023-04-12T12:40:34.201Z,2.22
2023-04-12T12:43:46.506Z,2.70
2023-04-12T12:46:57.137Z,2.40
2023-04-12T12:50:07.354Z,2.75
2023-04-12T12:53:14.025Z,1.73
2023-04-12T12:56:20.936Z,1.50
2023-04-12T12:59:30.159Z,1.92
2023-04-12T13:02:36.585Z,1.77
2023-04-12T13:05:40.937Z,1.45
2023-04-12T13:08:47.212Z,1.30
2023-04-12T13:15:13.439Z,1.35
2023-04-12T13:18:24.509Z,1.45
2023-04-12T13:21:31.372Z,1.60
2023-04-12T13:24:35.590Z,1.35
2023-04-12T13:27:42.029Z,1.60
2023-04-12T13:30:48.222Z,3.63
2023-04-12T13:33:54.287Z,2.30
2023-04-12T13:40:04.934Z,2.45
2023-04-12T13:43:09.133Z,2.00
2023-04-12T13:46:17.612Z,2.05
2023-04-12T13:49:21.596Z,2.13
2023-04-12T13:52:27.490Z,2.65
2023-04-12T13:55:31.846Z,2.90
2023-04-12T13:58:39.309Z,2.55
2023-04-12T14:01:46.505Z,1.70
2023-04-12T14:04:54.696Z,1.75
2023-04-12T14:08:01.528Z,2.25
2023-04-12T14:11:08.281Z,1.80
2023-04-12T14:14:14.213Z,2.40
2023-04-12T14:17:23.675Z,2.10
2023-04-12T14:20:28.000Z,2.67
2023-04-12T14:23:34.512Z,2.20
2023-04-12T14:26:39.337Z,2.33
2023-04-12T14:29:45.538Z,1.95
2023-04-12T14:32:51.934Z,2.30
2023-04-12T14:36:00.828Z,2.13
2023-04-12T14:39:07.624Z,1.92
2023-04-12T14:42:15.512Z,1.83
2023-04-12T14:45:20.622Z,2.55
2023-04-12T14:48:28.868Z,2.70
2023-04-12T14:51:33.449Z,1.85
2023-04-12T14:54:39.963Z,2.33
2023-04-12T14:57:44.888Z,2.08
2023-04-12T15:00:51.327Z,2.30
2023-04-12T15:04:00.273Z,1.95
2023-04-12T15:07:07.333Z,2.60
2023-04-12T15:10:13.661Z,2.30
2023-04-12T15:13:24.181Z,2.13
2023-04-12T15:16:30.529Z,2.13
2023-04-12T15:19:38.963Z,2.15
2023-04-12T15:22:43.101Z,2.40
2023-04-12T15:25:49.291Z,2.97
2023-04-12T15:28:53.484Z,4.00
2023-04-12T15:31:59.957Z,2.40
2023-04-12T15:35:18.727Z,2.22
2023-04-12T15:38:32.254Z,2.22
2023-04-12T15:41:37.780Z,3.00
2023-04-12T15:44:46.071Z,2.30
2023-04-12T15:47:50.359Z,2.58
2023-04-12T15:50:58.661Z,4.65
2023-04-12T15:54:03.481Z,2.33
2023-04-12T15:57:11.101Z,2.50
2023-04-12T16:00:23.283Z,2.55
2023-04-12T16:06:37.803Z,2.35
2023-04-12T16:09:45.120Z,2.40
2023-04-12T16:12:49.489Z,1.90
2023-04-12T16:15:55.681Z,1.20
2023-04-12T16:19:00.483Z,3.20
2023-04-12T16:22:08.900Z,1.42
2023-04-12T16:25:12.970Z,1.42
2023-04-12T16:28:20.142Z,1.27
2023-04-12T16:31:24.799Z,1.70
2023-04-12T16:34:31.125Z,1.40
2023-04-12T16:37:38.365Z,1.75
2023-04-12T16:40:44.333Z,1.67
2023-04-12T16:47:00.608Z,1.27
2023-04-12T16:50:08.098Z,0.95
2023-04-12T16:53:17.222Z,1.00
2023-04-12T16:56:22.487Z,0.60
2023-04-12T16:59:29.035Z,0.50
2023-04-12T17:02:34.318Z,0.70
2023-04-12T17:05:40.725Z,0.50
2023-04-12T17:08:47.290Z,0.40
2023-04-12T17:11:53.493Z,0.50
2023-04-12T17:14:57.443Z,0.60
2023-04-12T17:18:05.168Z,0.60
2023-04-12T17:21:09.307Z,0.60
2023-04-12T17:24:17.802Z,0.30
2023-04-12T17:27:21.978Z,0.30
2023-04-12T17:30:28.275Z,0.60
2023-04-12T17:33:32.571Z,0.47
2023-04-12T17:36:39.545Z,0.43
2023-04-12T17:39:45.582Z,0.50
2023-04-12T17:42:51.967Z,0.65
2023-04-12T17:45:56.530Z,0.68
2023-04-12T17:49:04.970Z,0.50
2023-04-12T17:52:10.546Z,0.80
2023-04-12T17:55:23.038Z,0.60
2023-04-12T17:58:29.442Z,0.70
2023-04-12T18:01:36.976Z,0.90
2023-04-12T18:04:41.449Z,0.68
2023-04-12T18:07:47.486Z,1.00
2023-04-12T18:14:01.288Z,0.93
2023-04-12T18:17:05.329Z,0.90
2023-04-12T18:20:13.413Z,0.80
2023-04-12T18:23:17.394Z,0.88
2023-04-12T18:26:25.901Z,3.85
2023-04-12T18:29:30.213Z,1.65
2023-04-12T18:32:36.676Z,0.93
2023-04-12T18:35:41.910Z,1.70
2023-04-12T18:38:48.356Z,1.40
2023-04-12T18:41:54.608Z,1.35
2023-04-12T18:45:01.416Z,1.30
2023-04-12T18:48:05.744Z,1.45
2023-04-12T18:51:12.147Z,1.38
2023-04-12T18:54:17.026Z,1.65
2023-04-12T18:57:25.538Z,1.60
2023-04-12T19:00:30.322Z,1.90
2023-04-12T19:03:38.917Z,2.20
2023-04-12T19:06:44.006Z,1.40
2023-04-12T19:09:50.206Z,1.38
2023-04-12T19:12:56.653Z,1.80
2023-04-12T19:16:02.931Z,1.90
2023-04-12T19:19:07.212Z,1.25
2023-04-12T19:22:13.514Z,1.88
2023-04-12T19:28:28.680Z,1.15
2023-04-12T19:31:34.594Z,1.40
2023-04-12T19:34:41.316Z,1.58
2023-04-12T19:37:45.353Z,1.50
2023-04-12T19:40:54.042Z,2.17
2023-04-12T19:44:01.569Z,2.10
2023-04-12T19:47:08.164Z,2.45
2023-04-12T19:50:13.309Z,2.08
2023-04-12T21:37:10.579Z,1.77
2023-04-12T21:40:17.526Z,2.22
2023-04-12T21:43:21.544Z,2.53
2023-04-12T21:46:28.288Z,2.47
2023-04-12T21:49:33.685Z,1.95
2023-04-12T21:52:43.532Z,2.25
2023-04-12T21:55:49.155Z,2.72
2023-04-12T21:58:56.766Z,2.58
2023-04-12T22:02:01.164Z,2.33
2023-04-12T22:05:08.216Z,2.38
2023-04-12T22:08:14.162Z,2.40
2023-04-12T22:11:20.256Z,3.30
2023-04-12T22:14:28.267Z,2.60
2023-04-12T22:17:34.632Z,2.85
2023-04-12T22:20:39.766Z,2.40
2023-04-12T22:23:47.582Z,2.47
2023-04-12T22:26:51.700Z,2.63
2023-04-12T22:30:00.199Z,2.10
2023-04-12T22:33:04.250Z,2.65
2023-04-12T22:36:11.273Z,2.67
2023-04-12T22:39:17.613Z,2.53
2023-04-12T22:42:26.017Z,2.42
2023-04-12T22:45:30.878Z,2.47
2023-04-12T22:48:37.266Z,1.92
2023-04-12T22:51:41.735Z,2.10
2023-04-12T22:54:50.314Z,2.13
2023-04-12T22:57:54.545Z,2.00
2023-04-12T23:01:00.469Z,2.35
2023-04-12T23:07:11.236Z,1.88
2023-04-12T23:10:17.748Z,1.80
2023-04-12T23:13:23.691Z,2.22
2023-04-12T23:19:33.989Z,2.40
2023-04-12T23:22:56.557Z,1.83
2023-04-12T23:26:05.681Z,1.73
2023-04-12T23:29:09.622Z,1.73
2023-04-12T23:32:15.759Z,1.98
2023-04-12T23:35:19.691Z,2.00
2023-04-12T23:38:31.363Z,2.10
2023-04-12T23:41:40.163Z,1.50
2023-04-12T23:44:46.196Z,1.55
2023-04-12T23:47:50.201Z,1.25
2023-04-12T23:50:56.285Z,1.42
2023-04-12T23:54:00.323Z,1.38
2023-04-12T23:57:08.332Z,1.63
